Time;durP1;ratioP1;P1;durP2;ratioP2;P2;SDS_P1;SDS_P2;PMS_P1;PMS_P2;Temp;Humidity;BMP_temperature;BMP_pressure;BME280_temperature;BME280_humidity;BME280_pressure;Samples;Min_cycle;Max_cycle;Signal;HPM_P1;HPM_P2
2022/11/27 04:20:39;;;;;;;110.12;54.00;;;;;;;4.35;86.68;95425.66;1772848;80;21493;-43
2022/11/27 04:23:06;;;;;;;94.47;52.33;;;;;;;4.27;86.18;95427.41;1785501;80;20970;-43
2022/11/27 04:25:33;;;;;;;97.42;52.40;;;;;;;4.21;86.22;95429.74;1768553;79;20953;-43
2022/11/27 04:28:00;;;;;;;76.30;44.65;;;;;;;4.24;86.53;95429.56;1768860;80;21256;-43
2022/11/27 08:03:49;;;;;;;126.27;75.80;;;;;;;3.57;90.76;95483.13;1799500;77;26427;-59
2022/11/27 08:06:23;;;;;;;119.42;71.80;;;;;;;3.53;90.67;95489.91;1808081;78;21492;-56
2022/11/27 08:08:50;;;;;;;115.12;70.28;;;;;;;3.61;90.92;95487.98;1716882;82;21321;-56
2022/11/27 08:11:24;;;;;;;122.05;73.42;;;;;;;3.73;90.96;95496.56;1739577;82;21687;-57
2022/11/27 08:13:58;;;;;;;136.20;82.30;;;;;;;3.83;90.93;95493.09;1712984;83;21509;-56
2022/11/27 08:16:26;;;;;;;128.70;78.40;;;;;;;3.93;91.18;95495.08;1710019;83;21041;-57
2022/11/27 08:18:53;;;;;;;117.82;76.33;;;;;;;4.08;90.93;95500.72;1711533;83;21116;-56
2022/11/27 08:21:21;;;;;;;123.78;80.32;;;;;;;4.18;90.75;95492.36;1711777;83;21156;-59
2022/11/27 08:23:47;;;;;;;120.05;78.00;;;;;;;4.26;90.24;95497.42;1711444;83;21061;-57
2022/11/27 08:26:15;;;;;;;110.45;74.55;;;;;;;4.30;89.66;95494.14;1713817;83;21763;-57
2022/11/27 08:28:42;;;;;;;98.80;66.45;;;;;;;4.32;89.56;95494.53;1684697;83;21550;-57
2022/11/27 08:31:11;;;;;;;96.72;65.37;;;;;;;4.41;89.27;95492.78;1688823;83;21116;-50
2022/11/27 08:33:37;;;;;;;85.17;57.23;;;;;;;4.39;88.83;95490.44;1712272;82;21287;-56
2022/11/27 08:36:05;;;;;;;85.77;54.67;;;;;;;4.40;88.61;95496.67;1709081;83;20994;-56
2022/11/27 08:38:34;;;;;;;103.97;69.03;;;;;;;4.41;88.51;95484.01;1707606;83;21014;-56
2022/11/27 08:41:03;;;;;;;100.35;69.03;;;;;;;4.52;88.79;95477.98;1691753;83;21036;-57
2022/11/27 08:43:30;;;;;;;106.50;69.05;;;;;;;4.64;88.18;95487.70;1712879;83;21092;-56
2022/11/27 08:45:57;;;;;;;145.30;95.67;;;;;;;4.68;87.80;95477.00;1715403;83;22099;-56
2022/11/27 08:48:24;;;;;;;124.53;85.70;;;;;;;4.82;88.18;95479.67;1711007;83;21156;-57
2022/11/27 08:50:51;;;;;;;112.57;73.57;;;;;;;5.07;88.22;95479.63;1710651;83;20962;-56
2022/11/27 08:53:18;;;;;;;108.67;69.90;;;;;;;5.28;87.33;95477.02;1708766;83;21045;-56
2022/11/27 08:55:45;;;;;;;109.85;72.97;;;;;;;5.47;86.59;95471.70;1714850;83;21009;-58
2022/11/27 08:58:11;;;;;;;114.77;73.57;;;;;;;5.63;85.32;95467.92;1711389;83;21110;-57
2022/11/27 09:00:39;;;;;;;110.75;69.77;;;;;;;5.68;84.74;95472.95;1689256;83;21135;-56
2022/11/27 09:03:06;;;;;;;114.22;71.07;;;;;;;5.69;84.17;95467.11;1687800;83;21017;-58
2022/11/27 09:05:33;;;;;;;94.45;58.17;;;;;;;5.68;83.60;95467.49;1711605;83;21099;-58
2022/11/27 09:08:04;;;;;;;70.17;46.10;;;;;;;5.77;83.85;95465.88;1683844;83;21092;-56
2022/11/27 09:10:28;;;;;;;57.08;38.60;;;;;;;5.91;83.26;95468.56;1704462;83;21161;-56
2022/11/27 09:12:55;;;;;;;36.50;25.72;;;;;;;5.93;82.27;95470.31;1708764;83;21033;-58
2022/11/27 09:15:22;;;;;;;40.60;29.77;;;;;;;5.91;82.21;95468.56;1703864;83;21065;-58
2022/11/27 09:17:49;;;;;;;67.05;47.43;;;;;;;6.04;81.98;95461.47;1762591;80;21125;-58
2022/11/27 09:20:16;;;;;;;63.05;43.75;;;;;;;6.15;81.49;95458.66;1778753;79;20963;-56
2022/11/27 09:22:43;;;;;;;60.63;41.50;;;;;;;6.22;80.83;95451.20;1775732;80;21307;-52
2022/11/27 09:25:11;;;;;;;61.45;41.48;;;;;;;6.29;80.69;95459.33;1761020;80;21500;-57
2022/11/27 09:27:37;;;;;;;60.43;40.95;;;;;;;6.40;80.14;95457.87;1760360;80;21049;-54
2022/11/27 09:30:07;;;;;;;43.33;31.55;;;;;;;6.47;79.88;95451.77;1761603;79;21053;-55
2022/11/27 09:32:34;;;;;;;83.15;53.92;;;;;;;6.65;79.40;95455.69;1781186;80;20986;-56
2022/11/27 09:35:02;;;;;;;53.13;36.85;;;;;;;6.78;78.33;95456.75;1758495;79;21640;-55
2022/11/27 09:37:29;;;;;;;40.10;27.77;;;;;;;6.85;77.73;95455.34;1745079;80;20958;-56
2022/11/27 09:39:56;;;;;;;50.83;35.10;;;;;;;6.87;76.79;95455.70;1772413;79;21515;-56
2022/11/27 09:42:40;;;;;;;63.02;41.70;;;;;;;6.90;76.21;95454.89;1760002;80;21009;-57
2022/11/27 09:45:13;;;;;;;56.18;38.95;;;;;;;6.88;76.61;95451.17;1710529;83;21056;-57
2022/11/27 09:47:44;;;;;;;66.62;46.73;;;;;;;7.02;76.29;95441.46;1712613;81;21231;-57
2022/11/27 09:50:18;;;;;;;89.90;62.48;;;;;;;6.99;75.74;95435.44;1712901;82;21026;-58
2022/11/27 09:52:59;;;;;;;81.37;58.58;;;;;;;6.98;76.46;95433.89;1705013;84;21529;-58
2022/11/27 09:55:32;;;;;;;65.75;46.83;;;;;;;7.14;76.55;95437.61;1707533;84;21085;-57
2022/11/27 09:58:06;;;;;;;58.42;40.73;;;;;;;7.28;75.83;95432.55;1731662;82;20986;-57
2022/11/27 10:00:33;;;;;;;55.15;40.23;;;;;;;7.28;74.97;95433.34;1736939;82;21149;-58
2022/11/27 14:03:35;;;;;;;32.83;19.30;;;;;;;3.58;85.84;95389.47;1809338;77;26273;-58
2022/11/27 14:06:03;;;;;;;24.65;16.32;;;;;;;3.54;85.94;95391.41;1810721;78;21087;-58
2022/11/27 14:08:32;;;;;;;23.98;16.15;;;;;;;3.57;85.67;95394.72;1786789;78;21979;-56
2022/11/27 14:11:05;;;;;;;26.42;18.02;;;;;;;3.60;85.18;95396.66;1789927;79;20987;-58
2022/11/27 14:13:49;;;;;;;41.30;25.00;;;;;;;3.58;85.00;95395.70;1775212;80;21549;-59
2022/11/27 14:16:25;;;;;;;58.75;36.05;;;;;;;3.59;84.97;95401.34;1778425;80;21077;-58
2022/11/27 14:18:53;;;;;;;50.25;32.28;;;;;;;3.61;84.76;95396.28;1776030;80;21087;-57
2022/11/27 14:21:37;;;;;;;39.13;27.42;;;;;;;3.65;84.47;95397.06;1785056;80;21113;-58
2022/11/27 14:27:19;;;;;;;45.33;27.35;;;;;;;3.57;83.98;95391.99;1687743;84;21074;-56
2022/11/27 14:29:47;;;;;;;40.28;26.77;;;;;;;3.55;83.83;95397.81;1627611;87;21111;-60
2022/11/27 14:32:15;;;;;;;47.40;29.52;;;;;;;3.54;83.79;95394.89;1594646;88;21820;-58
2022/11/27 14:34:42;;;;;;;67.08;37.80;;;;;;;3.51;83.61;95392.95;1596575;88;21318;-57
2022/11/27 14:37:24;;;;;;;78.97;46.20;;;;;;;3.51;83.62;95402.47;1571981;90;21088;-62
2022/11/27 14:39:52;;;;;;;40.05;26.75;;;;;;;3.53;83.69;95406.94;1597013;88;21581;-58
2022/11/27 14:42:26;;;;;;;42.75;26.40;;;;;;;3.59;83.61;95405.98;1596990;88;21050;-58
2022/11/27 14:45:09;;;;;;;35.05;25.20;;;;;;;3.61;83.47;95404.45;1555323;91;21071;-58
2022/11/27 14:47:40;;;;;;;38.17;24.50;;;;;;;3.67;83.40;95401.53;1584889;89;21768;-57
2022/11/27 14:50:11;;;;;;;32.58;21.35;;;;;;;3.74;82.99;95394.75;1578524;89;21100;-56
2022/11/27 14:52:39;;;;;;;31.90;20.00;;;;;;;3.80;83.00;95398.63;1550471;91;21021;-56
2022/11/27 14:55:13;;;;;;;33.85;23.25;;;;;;;3.83;82.59;95392.41;1550425;91;21076;-57
2022/11/27 14:57:42;;;;;;;27.87;20.27;;;;;;;3.83;82.28;95389.69;1540553;92;21210;-57
2022/11/27 15:00:19;;;;;;;36.38;23.80;;;;;;;3.87;82.15;95397.27;1581883;89;21182;-60
2022/11/27 15:02:48;;;;;;;36.13;23.83;;;;;;;3.87;81.90;95401.95;1583246;89;21608;-58
2022/11/27 15:05:23;;;;;;;46.95;32.93;;;;;;;3.86;81.56;95395.71;1506841;94;21071;-60
2022/11/27 15:07:53;;;;;;;44.35;27.85;;;;;;;3.81;81.64;95393.38;1500963;93;21128;-57
2022/11/27 15:10:31;;;;;;;31.90;21.82;;;;;;;3.84;81.67;95397.28;1428889;98;21173;-58
2022/11/27 15:12:59;;;;;;;30.32;20.90;;;;;;;3.80;81.43;95397.27;1437838;98;21357;-50
2022/11/27 15:15:27;;;;;;;27.27;19.32;;;;;;;3.78;81.49;95404.26;1437070;98;21090;-57
2022/11/27 15:18:03;;;;;;;31.33;22.55;;;;;;;3.77;81.64;95397.27;1433811;98;21145;-57
2022/11/27 15:20:37;;;;;;;33.53;22.52;;;;;;;3.78;81.61;95390.08;1430193;97;21102;-57
2022/11/27 15:23:16;;;;;;;35.08;22.70;;;;;;;3.78;81.46;95400.97;1408636;99;21266;-55
2022/11/27 15:25:47;;;;;;;35.20;23.50;;;;;;;3.78;81.32;95394.73;1446129;95;21408;-56
2022/11/27 15:28:43;;;;;;;34.70;19.87;;;;;;;3.79;81.27;95398.44;1474661;95;21165;-58
2022/11/27 15:31:36;;;;;;;30.40;20.95;;;;;;;3.79;80.95;95407.17;1456237;96;21187;-57
2022/11/27 15:34:20;;;;;;;34.90;21.97;;;;;;;3.79;81.17;95402.52;1445692;97;21201;-57
2022/11/27 15:36:55;;;;;;;29.98;20.97;;;;;;;3.83;81.02;95397.09;1449223;97;21166;-59
2022/11/27 15:39:39;;;;;;;43.92;28.73;;;;;;;3.91;81.05;95396.68;1459756;97;22365;-59
2022/11/27 15:42:10;;;;;;;31.10;21.60;;;;;;;3.98;80.67;95396.70;1471702;95;21246;-57
2022/11/27 15:44:38;;;;;;;27.05;21.02;;;;;;;4.03;80.35;95399.02;1463035;96;21129;-57
2022/11/27 15:47:05;;;;;;;32.83;22.27;;;;;;;4.05;80.46;95400.77;1461114;97;21117;-56
2022/11/27 15:49:32;;;;;;;31.45;22.27;;;;;;;4.13;80.06;95402.91;1458429;98;21062;-57
2022/11/27 15:51:59;;;;;;;40.90;24.07;;;;;;;4.13;79.83;95393.38;1458560;98;21451;-57
2022/11/27 15:54:25;;;;;;;35.20;22.25;;;;;;;4.12;79.54;95398.63;1458578;98;21199;-58
2022/11/27 15:57:02;;;;;;;35.05;21.95;;;;;;;4.09;79.41;95398.81;1453107;96;21556;-56
2022/11/27 15:59:30;;;;;;;32.08;20.80;;;;;;;4.06;79.47;95400.96;1447431;98;21216;-57
2022/11/27 20:08:04;;;;;;;37.38;20.82;;;;;;;2.06;83.59;95327.38;1819935;78;21076;-57
2022/11/27 20:10:30;;;;;;;29.92;16.95;;;;;;;2.05;83.81;95329.33;1795171;78;21232;-57
2022/11/27 20:13:00;;;;;;;32.83;18.73;;;;;;;2.06;83.96;95330.09;1756851;78;21021;-57
2022/11/27 20:15:28;;;;;;;27.10;18.35;;;;;;;2.10;84.26;95328.20;1796707;78;21010;-57
2022/11/27 20:17:55;;;;;;;34.65;23.92;;;;;;;2.17;84.35;95332.30;1799872;78;20952;-57
2022/11/27 20:20:22;;;;;;;29.98;19.75;;;;;;;2.26;84.33;95332.73;1787140;79;20927;-58
2022/11/27 20:22:49;;;;;;;30.72;20.08;;;;;;;2.34;84.08;95322.88;1791147;78;21230;-57
2022/11/27 20:25:16;;;;;;;43.83;26.17;;;;;;;2.38;83.71;95325.06;1795305;78;21140;-57
2022/11/27 20:27:43;;;;;;;37.75;22.75;;;;;;;2.40;83.65;95317.88;1801332;79;21002;-57
2022/11/27 20:30:11;;;;;;;37.08;21.33;;;;;;;2.46;83.60;95319.05;1819501;78;20994;-56
2022/11/27 20:32:38;;;;;;;40.43;22.52;;;;;;;2.53;83.48;95323.17;1804216;78;21557;-56
2022/11/27 20:35:06;;;;;;;39.08;24.10;;;;;;;2.59;83.34;95318.36;1791574;79;21134;-55
2022/11/27 20:37:33;;;;;;;36.95;20.37;;;;;;;2.71;83.29;95327.50;1806290;78;21426;-56
2022/11/27 20:40:00;;;;;;;27.22;17.95;;;;;;;2.80;82.84;95324.42;1815572;78;20962;-57
2022/11/27 20:42:28;;;;;;;24.60;16.10;;;;;;;2.82;82.21;95331.61;1791030;78;21048;-57
2022/11/27 20:44:55;;;;;;;27.17;18.00;;;;;;;2.80;82.00;95329.86;1781642;78;20961;-56
2022/11/27 20:47:22;;;;;;;36.45;21.45;;;;;;;2.75;81.80;95326.16;1790454;78;21136;-57
2022/11/27 20:49:49;;;;;;;33.53;20.35;;;;;;;2.71;81.79;95324.02;1783521;79;21188;-58
2022/11/27 20:52:16;;;;;;;33.30;18.98;;;;;;;2.69;81.91;95320.91;1782251;79;21042;-57
2022/11/27 20:54:43;;;;;;;32.90;19.50;;;;;;;2.72;81.70;95321.50;1764064;80;21010;-57
2022/11/27 20:57:12;;;;;;;40.60;24.40;;;;;;;2.74;81.72;95329.48;1763387;80;21051;-55
2022/11/27 20:59:40;;;;;;;40.67;23.80;;;;;;;2.78;81.66;95326.75;1779133;79;21222;-57
2022/11/27 21:02:10;;;;;;;39.15;23.47;;;;;;;2.84;81.78;95330.67;1782915;79;20978;-57
2022/11/27 21:04:37;;;;;;;40.20;21.52;;;;;;;2.90;81.76;95323.70;1782066;79;21062;-58
2022/11/27 21:07:05;;;;;;;39.15;22.13;;;;;;;2.95;81.49;95324.11;1783559;79;21482;-57
2022/11/27 21:09:32;;;;;;;34.63;20.57;;;;;;;2.99;80.99;95330.89;1764477;79;21083;-58
2022/11/27 21:12:00;;;;;;;41.18;22.62;;;;;;;2.98;80.79;95321.18;1781158;79;21811;-57
2022/11/27 21:14:27;;;;;;;35.30;20.65;;;;;;;3.00;80.95;95320.21;1757357;80;21540;-57
2022/11/27 21:16:54;;;;;;;34.18;20.82;;;;;;;3.03;80.58;95322.95;1780516;79;21033;-56
2022/11/27 21:19:23;;;;;;;38.75;22.50;;;;;;;3.02;80.49;95321.39;1784355;79;21037;-56
2022/11/27 21:21:52;;;;;;;46.05;25.10;;;;;;;3.04;80.29;95325.09;1782619;79;20978;-56
2022/11/27 21:24:19;;;;;;;37.13;21.07;;;;;;;3.10;80.28;95311.31;1782562;79;21132;-57
2022/11/27 21:26:47;;;;;;;41.50;25.12;;;;;;;3.15;80.12;95319.88;1779792;79;21085;-56
2022/11/27 21:29:14;;;;;;;42.58;23.50;;;;;;;3.23;80.12;95320.67;1781632;79;21512;-56
2022/11/27 21:31:41;;;;;;;41.70;22.55;;;;;;;3.29;79.84;95324.55;1781079;79;21011;-57
2022/11/27 21:34:10;;;;;;;42.70;23.32;;;;;;;3.32;79.38;95320.48;1778802;79;21251;-57
2022/11/27 21:36:37;;;;;;;31.30;18.32;;;;;;;3.35;79.32;95318.92;1776636;79;21724;-58
2022/11/27 21:39:07;;;;;;;24.57;15.70;;;;;;;3.40;78.77;95321.27;1778237;79;20986;-58
2022/11/27 21:41:34;;;;;;;37.28;20.50;;;;;;;3.40;78.62;95313.12;1783113;79;21160;-57
2022/11/27 21:44:02;;;;;;;31.25;17.82;;;;;;;3.47;78.85;95315.27;1786289;79;21069;-58
2022/11/27 21:46:29;;;;;;;27.70;16.07;;;;;;;3.53;78.17;95312.34;1779770;79;20958;-56
2022/11/27 21:48:59;;;;;;;34.63;17.80;;;;;;;3.47;78.08;95310.39;1779376;79;21125;-57
2022/11/27 21:51:26;;;;;;;29.10;17.52;;;;;;;3.43;78.01;95317.78;1784079;79;20998;-57
2022/11/27 21:53:54;;;;;;;30.65;19.17;;;;;;;3.38;77.98;95310.02;1782333;79;20963;-56
2022/11/27 21:56:23;;;;;;;45.08;24.25;;;;;;;3.34;77.99;95305.13;1780386;79;20971;-56
2022/11/27 21:58:50;;;;;;;31.50;18.90;;;;;;;3.40;78.42;95315.23;1782388;79;20998;-57
2022/11/27 22:01:20;;;;;;;39.33;22.37;;;;;;;3.53;78.07;95304.94;1778950;79;21346;-57
2022/11/27 22:03:49;;;;;;;44.45;27.52;;;;;;;3.59;77.30;95308.84;1780748;79;21522;-57
2022/11/27 22:06:16;;;;;;;43.48;25.08;;;;;;;3.56;77.17;95303.40;1781261;79;20958;-57
2022/11/27 22:08:44;;;;;;;38.42;21.37;;;;;;;3.57;77.29;95308.46;1773863;79;21067;-59
2022/11/27 22:11:17;;;;;;;30.35;19.50;;;;;;;3.64;77.33;95305.73;1778503;79;21002;-58
2022/11/27 22:13:45;;;;;;;30.72;18.50;;;;;;;3.66;77.03;95304.76;1783819;79;20974;-58
2022/11/27 22:16:18;;;;;;;30.88;18.62;;;;;;;3.65;77.08;95303.20;1782206;80;20999;-58
2022/11/27 22:18:46;;;;;;;38.48;22.87;;;;;;;3.67;76.82;95303.59;1681117;84;21047;-57
2022/11/27 22:21:13;;;;;;;33.42;20.43;;;;;;;3.72;76.98;95299.11;1677988;84;21025;-57
2022/11/27 22:23:42;;;;;;;24.63;16.42;;;;;;;3.80;76.61;95303.39;1679312;84;21103;-57
2022/11/27 22:26:13;;;;;;;27.02;17.30;;;;;;;3.81;76.30;95294.62;1680331;84;21242;-57
2022/11/27 22:28:40;;;;;;;25.65;16.17;;;;;;;3.79;75.92;95288.80;1648310;85;21189;-58
2022/11/27 22:31:09;;;;;;;27.80;18.10;;;;;;;3.75;75.86;95282.59;1660241;85;21140;-58
2022/11/27 22:33:38;;;;;;;30.72;18.50;;;;;;;3.70;76.04;95285.13;1660540;85;21209;-59
2022/11/27 22:36:31;;;;;;;25.25;16.85;;;;;;;3.71;75.93;95286.67;1659237;85;21073;-58
2022/11/27 22:39:01;;;;;;;26.48;16.57;;;;;;;3.67;75.99;95277.74;1653738;85;21099;-58
2022/11/27 22:41:30;;;;;;;25.90;17.32;;;;;;;3.73;76.18;95276.77;1663109;85;20999;-58
